createdAt,value
2023-02-06T00:01:55.705Z,16.00
2023-02-06T00:04:22.128Z,16.27
2023-02-06T00:06:49.003Z,16.08
2023-02-06T00:09:15.533Z,14.88
2023-02-06T00:11:42.060Z,14.05
2023-02-06T00:14:08.674Z,15.20
2023-02-06T00:16:35.493Z,15.75
2023-02-06T00:19:03.130Z,14.07
2023-02-06T00:21:30.250Z,14.77
2023-02-06T00:23:59.108Z,14.52
2023-02-06T00:26:26.114Z,14.10
2023-02-06T00:28:52.644Z,14.18
2023-02-06T00:31:19.272Z,13.00
2023-02-06T00:33:45.796Z,13.50
2023-02-06T00:36:12.582Z,13.38
2023-02-06T00:38:39.087Z,12.82
2023-02-06T00:41:05.828Z,14.02
2023-02-06T00:43:32.467Z,13.73
2023-02-06T00:45:58.878Z,13.20
2023-02-06T00:48:25.721Z,11.73
2023-02-06T00:50:53.680Z,12.75
2023-02-06T00:53:20.643Z,11.98
2023-02-06T00:55:47.540Z,13.20
2023-02-06T00:58:13.990Z,11.77
2023-02-06T01:00:40.419Z,11.45
2023-02-06T01:03:07.209Z,12.10
2023-02-06T01:05:33.773Z,10.98
2023-02-06T01:08:00.950Z,11.32
2023-02-06T01:10:29.068Z,11.85
2023-02-06T01:12:55.487Z,11.77
2023-02-06T01:15:22.028Z,11.15
2023-02-06T01:17:48.897Z,11.55
2023-02-06T01:20:15.432Z,11.70
2023-02-06T01:22:42.007Z,10.85
2023-02-06T01:25:08.805Z,11.45
2023-02-06T01:27:37.271Z,11.60
2023-02-06T01:30:05.795Z,10.75
2023-02-06T01:32:32.261Z,11.48
2023-02-06T01:34:58.675Z,10.98
2023-02-06T01:37:25.310Z,12.40
2023-02-06T01:39:51.869Z,12.75
2023-02-06T01:42:18.571Z,12.95
2023-02-06T01:44:45.005Z,11.32
2023-02-06T01:47:11.455Z,13.13
2023-02-06T01:49:50.892Z,12.32
2023-02-06T01:52:24.336Z,12.32
2023-02-06T01:54:58.148Z,12.63
2023-02-06T01:57:26.655Z,11.48
2023-02-06T01:59:59.111Z,13.07
2023-02-06T02:02:28.169Z,12.52
2023-02-06T02:04:56.815Z,12.32
2023-02-06T02:07:27.226Z,11.88
2023-02-06T02:09:53.706Z,12.90
2023-02-06T02:12:21.542Z,11.75
2023-02-06T02:14:50.362Z,11.77
2023-02-06T02:17:32.904Z,10.63
2023-02-06T02:20:27.194Z,10.75
2023-02-06T02:23:18.700Z,12.02
2023-02-06T02:25:54.257Z,10.40
2023-02-06T02:28:55.933Z,10.80
2023-02-06T02:31:45.479Z,11.65
2023-02-06T02:34:44.998Z,10.52
2023-02-06T02:37:20.208Z,10.75
2023-02-06T02:40:08.227Z,11.23
2023-02-06T02:42:48.711Z,11.90
2023-02-06T02:45:28.634Z,12.57
2023-02-06T02:48:15.114Z,11.65
2023-02-06T02:50:42.858Z,11.63
2023-02-06T02:53:09.674Z,16.48
2023-02-06T02:55:36.350Z,14.18
2023-02-06T02:58:08.432Z,13.32
2023-02-06T03:00:40.019Z,13.45
2023-02-06T03:03:08.923Z,13.63
2023-02-06T03:05:42.495Z,12.27
2023-02-06T03:11:02.665Z,10.88
2023-02-06T03:13:38.145Z,11.57
2023-02-06T03:16:43.012Z,11.55
2023-02-06T03:19:22.925Z,10.60
2023-02-06T03:21:49.957Z,12.60
2023-02-06T03:24:33.255Z,12.60
2023-02-06T03:27:03.567Z,12.40
2023-02-06T03:29:34.060Z,12.75
2023-02-06T03:32:04.393Z,13.38
2023-02-06T03:34:44.581Z,12.13
2023-02-06T03:37:11.780Z,11.55
2023-02-06T03:39:39.468Z,13.60
2023-02-06T03:42:06.969Z,12.40
2023-02-06T03:44:39.381Z,12.30
2023-02-06T03:47:08.123Z,11.98
2023-02-06T03:49:37.925Z,13.00
2023-02-06T03:52:15.855Z,12.35
2023-02-06T03:54:49.045Z,12.43
2023-02-06T03:57:19.368Z,13.77
2023-02-06T03:59:47.079Z,12.70
2023-02-06T04:02:15.159Z,12.25
2023-02-06T04:04:44.466Z,11.98
2023-02-06T04:07:19.829Z,12.38
2023-02-06T04:09:46.288Z,13.20
2023-02-06T04:12:12.749Z,11.45
2023-02-06T04:14:39.956Z,11.93
2023-02-06T04:17:07.125Z,12.35
2023-02-06T04:19:34.010Z,14.60
2023-02-06T04:22:00.981Z,11.88
2023-02-06T04:24:29.272Z,12.40
2023-02-06T04:26:57.168Z,12.20
2023-02-06T04:29:23.653Z,11.15
2023-02-06T04:31:50.100Z,12.18
2023-02-06T04:34:16.931Z,12.43
2023-02-06T04:36:44.165Z,12.63
2023-02-06T04:39:10.985Z,11.63
2023-02-06T04:41:37.458Z,11.70
2023-02-06T04:44:04.248Z,11.80
2023-02-06T04:46:30.726Z,10.95
2023-02-06T04:48:57.147Z,9.93
2023-02-06T04:51:23.591Z,10.95
2023-02-06T04:53:49.997Z,10.63
2023-02-06T04:56:16.476Z,11.05
2023-02-06T04:58:43.173Z,11.20
2023-02-06T05:01:09.883Z,10.38
2023-02-06T05:03:36.554Z,10.95
2023-02-06T05:06:04.398Z,11.85
2023-02-06T05:08:31.401Z,10.60
2023-02-06T05:10:57.827Z,9.60
2023-02-06T05:13:24.293Z,11.05
2023-02-06T05:15:52.099Z,10.02
2023-02-06T05:18:18.682Z,10.05
2023-02-06T05:20:45.536Z,8.43
2023-02-06T05:23:12.064Z,9.60
2023-02-06T05:25:39.193Z,8.60
2023-02-06T05:28:07.414Z,8.25
2023-02-06T05:30:35.071Z,8.23
2023-02-06T05:33:01.950Z,7.63
2023-02-06T05:35:29.445Z,8.68
2023-02-06T05:37:56.982Z,10.13
2023-02-06T05:40:23.514Z,10.55
2023-02-06T05:42:50.208Z,10.18
2023-02-06T05:45:16.956Z,10.25
2023-02-06T05:47:43.392Z,9.13
2023-02-06T05:50:09.912Z,7.55
2023-02-06T05:52:36.575Z,7.45
2023-02-06T05:55:03.149Z,7.90
2023-02-06T05:57:29.637Z,7.20
2023-02-06T05:59:56.068Z,8.35
2023-02-06T06:02:22.514Z,7.65
2023-02-06T06:04:48.948Z,9.10
2023-02-06T06:07:16.322Z,8.75
2023-02-06T06:09:43.132Z,8.15
2023-02-06T06:12:09.596Z,8.73
2023-02-06T06:14:36.013Z,8.48
2023-02-06T06:17:02.671Z,7.40
2023-02-06T06:19:29.178Z,8.00
2023-02-06T06:21:57.892Z,8.07
2023-02-06T06:24:26.422Z,8.27
2023-02-06T06:26:53.005Z,9.70
2023-02-06T06:29:19.574Z,8.90
2023-02-06T06:31:46.153Z,8.88
2023-02-06T06:34:12.819Z,8.15
2023-02-06T06:36:39.276Z,7.93
2023-02-06T06:39:05.686Z,6.85
2023-02-06T06:41:32.149Z,6.63
2023-02-06T06:43:58.905Z,7.03
2023-02-06T06:46:25.598Z,6.78
2023-02-06T06:48:52.223Z,6.55
2023-02-06T06:51:18.639Z,6.55
2023-02-06T06:53:45.096Z,6.78
2023-02-06T06:56:14.457Z,6.55
2023-02-06T06:58:41.819Z,7.20
2023-02-06T07:01:09.451Z,6.68
2023-02-06T07:03:36.694Z,6.95
2023-02-06T07:06:03.333Z,7.32
2023-02-06T07:08:30.109Z,6.85
2023-02-06T07:10:58.012Z,6.82
2023-02-06T07:13:24.446Z,7.20
2023-02-06T07:15:50.826Z,6.85
2023-02-06T07:18:17.312Z,6.75
2023-02-06T07:20:43.757Z,6.38
2023-02-06T07:23:10.192Z,7.82
2023-02-06T07:25:36.848Z,6.65
2023-02-06T07:28:03.604Z,6.65
2023-02-06T07:30:30.129Z,7.97
2023-02-06T07:32:56.651Z,7.07
2023-02-06T07:35:23.073Z,6.85
2023-02-06T07:37:49.654Z,6.88
2023-02-06T07:40:16.811Z,6.13
2023-02-06T07:42:43.254Z,6.10
2023-02-06T07:45:10.143Z,6.22
2023-02-06T07:47:36.642Z,6.30
2023-02-06T07:50:04.360Z,11.43
2023-02-06T07:52:31.277Z,7.55
2023-02-06T07:54:57.668Z,6.80
2023-02-06T07:57:24.141Z,7.68
2023-02-06T07:59:50.744Z,6.90
2023-02-06T08:02:17.188Z,7.78
2023-02-06T08:04:44.643Z,6.80
2023-02-06T08:07:14.961Z,6.72
2023-02-06T08:09:41.984Z,7.45
2023-02-06T08:12:10.950Z,7.35
2023-02-06T08:14:43.105Z,7.50
2023-02-06T08:17:09.736Z,6.93
2023-02-06T08:19:36.200Z,7.63
2023-02-06T08:22:02.650Z,6.68
2023-02-06T08:24:29.098Z,6.63
2023-02-06T08:26:56.287Z,7.13
2023-02-06T08:29:22.885Z,7.18
2023-02-06T08:31:49.824Z,7.00
2023-02-06T08:34:16.359Z,7.50
2023-02-06T08:36:43.688Z,7.68
2023-02-06T08:39:13.368Z,6.57
2023-02-06T08:41:41.423Z,6.28
2023-02-06T08:44:14.480Z,6.05
2023-02-06T08:46:41.022Z,6.90
2023-02-06T08:49:11.943Z,5.70
2023-02-06T08:51:38.381Z,5.88
2023-02-06T08:54:07.112Z,5.25
2023-02-06T08:56:35.309Z,5.35
2023-02-06T08:59:02.269Z,4.93
2023-02-06T09:01:31.103Z,4.57
2023-02-06T09:04:00.446Z,5.18
2023-02-06T09:06:27.520Z,5.82
2023-02-06T09:08:54.391Z,4.93
2023-02-06T09:11:22.794Z,4.35
2023-02-06T09:13:50.368Z,5.90
2023-02-06T09:16:19.829Z,4.75
2023-02-06T09:18:46.877Z,3.95
2023-02-06T09:21:16.121Z,4.07
2023-02-06T09:23:45.552Z,3.53
2023-02-06T09:26:17.502Z,3.70
2023-02-06T09:28:43.932Z,4.15
2023-02-06T09:31:11.684Z,4.25
2023-02-06T09:33:39.533Z,3.63
2023-02-06T09:36:12.266Z,3.88
2023-02-06T09:38:41.013Z,3.58
2023-02-06T09:41:18.997Z,4.22
2023-02-06T09:43:51.679Z,3.15
2023-02-06T09:46:23.323Z,3.80
2023-02-06T09:48:50.903Z,4.80
2023-02-06T09:51:56.542Z,4.15
2023-02-06T09:54:29.365Z,4.47
2023-02-06T09:57:13.034Z,4.43
2023-02-06T09:59:45.052Z,3.55
2023-02-06T10:02:41.015Z,4.65
2023-02-06T10:05:26.992Z,4.45
2023-02-06T10:08:12.952Z,4.57
2023-02-06T10:10:46.296Z,3.92
2023-02-06T10:13:31.018Z,4.30
2023-02-06T10:16:34.102Z,3.72
2023-02-06T10:19:22.775Z,4.78
2023-02-06T10:21:55.454Z,5.13
2023-02-06T10:25:02.704Z,4.57
2023-02-06T10:27:33.693Z,4.25
2023-02-06T10:30:01.747Z,4.22
2023-02-06T10:33:11.797Z,4.97
2023-02-06T10:35:46.233Z,5.18
2023-02-06T10:39:00.782Z,4.25
2023-02-06T10:41:40.588Z,3.42
2023-02-06T10:44:26.655Z,3.20
2023-02-06T10:46:55.676Z,3.50
2023-02-06T10:49:36.093Z,3.40
2023-02-06T10:52:14.584Z,4.32
2023-02-06T10:54:50.979Z,4.35
2023-02-06T10:57:21.716Z,3.90
2023-02-06T10:59:53.757Z,3.15
2023-02-06T11:02:20.398Z,4.35
2023-02-06T11:04:56.804Z,3.72
2023-02-06T11:07:28.669Z,4.10
2023-02-06T11:09:55.374Z,3.10
2023-02-06T11:12:32.429Z,3.30
2023-02-06T11:15:05.052Z,4.18
2023-02-06T11:17:33.191Z,3.50
2023-02-06T11:20:15.206Z,3.80
2023-02-06T11:22:52.430Z,4.70
2023-02-06T11:25:21.514Z,3.92
2023-02-06T11:27:48.856Z,4.03
2023-02-06T11:30:43.035Z,5.70
2023-02-06T11:33:22.888Z,3.75
2023-02-06T11:35:59.091Z,3.97
2023-02-06T11:38:29.514Z,3.95
2023-02-06T11:41:16.984Z,2.85
2023-02-06T11:43:43.338Z,4.07
2023-02-06T11:46:15.113Z,4.15
2023-02-06T11:48:55.668Z,3.70
2023-02-06T11:51:24.444Z,4.20
2023-02-06T11:54:01.232Z,3.90
2023-02-06T11:56:28.973Z,4.55
2023-02-06T11:59:23.057Z,4.15
2023-02-06T12:01:50.097Z,3.60
2023-02-06T12:04:24.637Z,8.52
2023-02-06T12:09:19.276Z,7.28
2023-02-06T12:14:19.354Z,4.13
2023-02-06T12:16:46.874Z,4.00
2023-02-06T12:19:31.747Z,4.50
2023-02-06T12:22:02.733Z,4.75
2023-02-06T12:24:29.186Z,4.60
2023-02-06T12:26:59.735Z,6.20
2023-02-06T12:29:40.555Z,7.80
2023-02-06T12:32:19.345Z,8.13
2023-02-06T12:34:54.185Z,5.45
2023-02-06T12:37:42.126Z,4.75
2023-02-06T12:40:32.777Z,4.97
2023-02-06T12:43:09.497Z,5.53
2023-02-06T12:49:18.873Z,5.93
2023-02-06T12:52:04.846Z,5.47
2023-02-06T12:54:44.811Z,6.43
2023-02-06T12:57:20.219Z,6.22
2023-02-06T12:59:58.452Z,5.88
2023-02-06T13:02:53.682Z,7.55
2023-02-06T13:05:23.138Z,5.63
2023-02-06T13:07:50.990Z,5.80
2023-02-06T13:10:25.502Z,6.07
2023-02-06T13:12:58.537Z,6.00
2023-02-06T13:15:35.174Z,5.20
2023-02-06T13:18:01.814Z,5.43
2023-02-06T13:20:30.856Z,5.55
2023-02-06T13:23:23.499Z,5.47
2023-02-06T13:25:50.356Z,5.53
2023-02-06T13:28:22.888Z,5.22
2023-02-06T13:30:59.867Z,5.65
2023-02-06T13:33:37.992Z,5.00
2023-02-06T13:36:16.595Z,6.78
2023-02-06T13:38:43.665Z,5.82
2023-02-06T13:41:15.877Z,6.47
2023-02-06T13:43:59.421Z,6.00
2023-02-06T13:46:44.644Z,6.72
2023-02-06T13:49:38.675Z,5.43
2023-02-06T13:52:24.750Z,5.75
2023-02-06T13:55:20.880Z,6.13
2023-02-06T13:58:15.415Z,5.57
2023-02-06T14:00:45.909Z,4.80
2023-02-06T14:03:18.390Z,4.43
2023-02-06T14:05:47.831Z,4.45
2023-02-06T14:08:32.537Z,4.80
2023-02-06T14:11:32.750Z,4.45
2023-02-06T14:14:18.061Z,3.72
2023-02-06T14:17:06.786Z,3.38
2023-02-06T14:19:54.170Z,3.67
2023-02-06T14:22:45.866Z,3.42
2023-02-06T14:25:22.778Z,3.28
2023-02-06T14:28:12.856Z,3.42
2023-02-06T14:31:02.187Z,3.88
2023-02-06T14:34:07.069Z,3.55
2023-02-06T14:36:43.388Z,2.83
2023-02-06T14:39:54.720Z,2.78
2023-02-06T14:42:33.305Z,3.63
2023-02-06T14:45:23.937Z,3.83
2023-02-06T14:47:52.394Z,3.83
2023-02-06T14:50:25.365Z,3.40
2023-02-06T14:52:56.385Z,3.15
2023-02-06T14:55:39.672Z,3.60
2023-02-06T14:58:18.533Z,3.33
2023-02-06T15:00:45.480Z,3.42
2023-02-06T15:03:19.072Z,3.33
2023-02-06T15:05:46.235Z,4.13
2023-02-06T15:08:19.321Z,3.15
2023-02-06T15:10:46.836Z,3.58
2023-02-06T15:13:24.499Z,4.10
2023-02-06T15:15:55.821Z,3.38
2023-02-06T15:18:22.753Z,3.97
2023-02-06T15:21:04.432Z,3.90
2023-02-06T15:23:55.351Z,4.28
2023-02-06T15:26:25.439Z,3.80
2023-02-06T15:29:04.183Z,5.20
2023-02-06T15:31:31.448Z,4.38
2023-02-06T15:34:00.182Z,3.25
2023-02-06T15:36:32.529Z,3.95
2023-02-06T15:39:00.795Z,3.88
2023-02-06T15:41:30.956Z,3.85
2023-02-06T15:44:02.967Z,4.13
2023-02-06T15:46:31.093Z,3.22
2023-02-06T15:48:58.341Z,4.20
2023-02-06T15:51:39.703Z,3.85
2023-02-06T15:54:27.522Z,4.53
2023-02-06T15:56:58.812Z,3.13
2023-02-06T15:59:26.815Z,4.20
2023-02-06T16:01:56.782Z,3.95
2023-02-06T16:04:33.152Z,3.92
2023-02-06T16:07:11.566Z,4.13
2023-02-06T16:09:51.942Z,4.95
2023-02-06T16:12:21.380Z,4.20
2023-02-06T16:15:02.520Z,4.20
2023-02-06T16:17:35.344Z,5.30
2023-02-06T16:20:23.970Z,4.38
2023-02-06T16:22:56.999Z,4.43
2023-02-06T16:25:28.882Z,4.65
2023-02-06T16:27:56.157Z,3.97
2023-02-06T16:30:33.144Z,4.07
2023-02-06T16:33:08.989Z,4.85
2023-02-06T16:35:35.401Z,3.75
2023-02-06T16:38:01.836Z,3.75
2023-02-06T16:40:28.318Z,3.20
2023-02-06T16:42:54.893Z,3.80
2023-02-06T16:45:26.299Z,3.42
2023-02-06T16:47:57.499Z,3.40
2023-02-06T16:50:25.253Z,4.32
2023-02-06T16:52:55.186Z,3.58
2023-02-06T16:55:24.175Z,2.90
2023-02-06T16:57:58.663Z,3.10
2023-02-06T17:00:30.994Z,3.17
2023-02-06T17:03:03.936Z,2.70
2023-02-06T17:05:31.494Z,2.80
2023-02-06T17:07:59.075Z,3.50
2023-02-06T17:10:26.420Z,3.55
2023-02-06T17:12:53.019Z,3.20
2023-02-06T17:15:19.720Z,3.38
2023-02-06T17:17:46.574Z,3.35
2023-02-06T17:20:38.129Z,3.25
2023-02-06T17:23:05.551Z,3.90
2023-02-06T17:25:32.298Z,4.13
2023-02-06T17:27:59.337Z,4.85
2023-02-06T17:30:26.577Z,4.00
2023-02-06T17:32:53.384Z,2.95
2023-02-06T17:35:19.910Z,2.90
2023-02-06T17:37:46.694Z,2.97
2023-02-06T17:40:20.835Z,2.95
2023-02-06T17:42:48.207Z,3.00
2023-02-06T17:45:15.990Z,2.72
2023-02-06T17:47:43.650Z,3.60
2023-02-06T17:50:14.284Z,3.10
2023-02-06T17:52:40.705Z,3.22
2023-02-06T17:55:07.922Z,3.20
2023-02-06T17:57:36.598Z,2.60
2023-02-06T18:00:12.366Z,3.10
2023-02-06T18:02:38.914Z,2.60
2023-02-06T18:05:06.414Z,3.47
2023-02-06T18:07:33.015Z,2.90
2023-02-06T18:09:59.490Z,2.97
2023-02-06T18:12:26.021Z,3.50
2023-02-06T18:14:52.614Z,3.25
2023-02-06T18:17:19.126Z,2.75
2023-02-06T18:19:46.612Z,2.60
2023-02-06T18:22:17.332Z,3.70
2023-02-06T18:24:44.616Z,3.05
2023-02-06T18:27:18.460Z,2.83
2023-02-06T18:29:50.018Z,3.28
2023-02-06T18:32:18.239Z,3.30
2023-02-06T18:34:44.760Z,3.25
2023-02-06T18:37:11.294Z,3.95
2023-02-06T18:39:37.863Z,3.30
2023-02-06T18:42:23.421Z,6.07
2023-02-06T18:44:50.094Z,3.30
2023-02-06T18:47:17.569Z,3.38
2023-02-06T18:49:44.041Z,3.20
2023-02-06T18:52:10.539Z,3.30
2023-02-06T18:54:38.996Z,3.58
2023-02-06T18:57:06.020Z,4.40
2023-02-06T18:59:32.586Z,3.72
2023-02-06T19:01:59.122Z,3.47
2023-02-06T19:04:25.790Z,4.00
2023-02-06T19:06:52.213Z,3.63
2023-02-06T19:09:28.456Z,3.30
2023-02-06T19:11:54.963Z,2.92
2023-02-06T19:14:25.266Z,2.97
2023-02-06T19:16:52.966Z,2.88
2023-02-06T19:19:19.476Z,2.50
2023-02-06T19:21:46.107Z,2.10
2023-02-06T19:24:15.079Z,2.00
2023-02-06T19:26:42.268Z,2.72
2023-02-06T19:29:09.447Z,3.05
2023-02-06T19:31:39.221Z,2.30
2023-02-06T19:34:06.570Z,2.75
2023-02-06T19:36:34.972Z,3.03
2023-02-06T19:39:04.971Z,2.70
2023-02-06T19:41:33.581Z,3.20
2023-02-06T19:44:09.743Z,3.30
2023-02-06T19:46:36.347Z,3.20
2023-02-06T19:49:05.631Z,2.85
2023-02-06T19:51:38.444Z,2.60
2023-02-06T19:54:05.963Z,3.33
2023-02-06T19:56:39.307Z,3.03
2023-02-06T19:59:09.944Z,3.35
2023-02-06T20:01:36.480Z,2.80
2023-02-06T20:04:03.614Z,3.25
2023-02-06T20:06:35.577Z,3.00
2023-02-06T20:09:05.055Z,3.10
2023-02-06T20:11:32.970Z,3.15
2023-02-06T20:13:59.628Z,2.80
2023-02-06T20:16:30.375Z,3.33
2023-02-06T20:18:58.521Z,3.95
2023-02-06T20:21:32.396Z,3.63
2023-02-06T20:24:02.977Z,4.00
2023-02-06T20:26:34.595Z,4.00
2023-02-06T20:29:03.070Z,3.92
2023-02-06T20:31:30.137Z,4.95
2023-02-06T20:33:56.744Z,4.20
2023-02-06T20:36:26.348Z,4.60
2023-02-06T20:38:57.964Z,4.50
2023-02-06T20:41:31.140Z,4.28
2023-02-06T20:44:00.109Z,5.03
2023-02-06T20:46:29.726Z,4.70
2023-02-06T20:48:58.435Z,5.00
2023-02-06T20:51:25.151Z,5.28
2023-02-06T20:53:51.925Z,5.30
2023-02-06T20:56:19.400Z,5.70
2023-02-06T20:58:47.295Z,6.43
2023-02-06T21:01:17.610Z,7.20
2023-02-06T21:03:46.150Z,7.55
2023-02-06T21:06:13.990Z,8.40
2023-02-06T21:08:41.425Z,8.63
2023-02-06T21:11:08.075Z,10.32
2023-02-06T21:13:35.058Z,10.90
2023-02-06T21:16:01.919Z,10.20
2023-02-06T21:18:31.335Z,9.20
2023-02-06T21:21:07.141Z,10.20
2023-02-06T21:23:33.866Z,11.10
2023-02-06T21:26:03.108Z,11.07
2023-02-06T21:28:29.528Z,11.23
2023-02-06T21:31:02.042Z,11.98
2023-02-06T21:33:28.717Z,11.02
2023-02-06T21:35:55.611Z,11.20
2023-02-06T21:38:22.241Z,11.75
2023-02-06T21:40:49.331Z,12.38
2023-02-06T21:43:16.088Z,11.15
2023-02-06T21:45:45.339Z,12.60
2023-02-06T21:48:11.883Z,9.82
2023-02-06T21:50:39.809Z,10.57
2023-02-06T21:53:08.031Z,11.05
2023-02-06T21:55:34.603Z,11.45
2023-02-06T21:58:01.379Z,11.77
2023-02-06T22:00:28.789Z,11.77
2023-02-06T22:02:55.313Z,12.15
2023-02-06T22:05:21.843Z,11.25
2023-02-06T22:07:48.287Z,11.77
2023-02-06T22:10:14.813Z,11.88
2023-02-06T22:12:41.257Z,11.18
2023-02-06T22:15:08.333Z,11.90
2023-02-06T22:17:35.490Z,12.38
2023-02-06T22:20:02.139Z,12.30
2023-02-06T22:22:28.812Z,11.85
2023-02-06T22:24:59.670Z,12.02
2023-02-06T22:27:26.088Z,13.43
2023-02-06T22:29:55.527Z,11.40
2023-02-06T22:32:21.990Z,10.68
2023-02-06T22:34:50.846Z,10.43
2023-02-06T22:37:17.756Z,10.85
2023-02-06T22:39:44.297Z,11.05
2023-02-06T22:42:10.733Z,10.85
2023-02-06T22:44:37.636Z,10.30
2023-02-06T22:47:04.177Z,11.43
2023-02-06T22:49:30.593Z,11.27
2023-02-06T22:52:01.215Z,11.23
2023-02-06T22:54:27.704Z,10.90
2023-02-06T22:56:54.733Z,10.65
2023-02-06T22:59:23.546Z,11.35
2023-02-06T23:01:53.085Z,11.85
2023-02-06T23:04:22.468Z,11.30
2023-02-06T23:06:49.745Z,10.82
2023-02-06T23:09:19.024Z,10.77
2023-02-06T23:11:46.299Z,10.57
2023-02-06T23:14:14.679Z,11.35
2023-02-06T23:16:44.375Z,11.07
2023-02-06T23:19:13.814Z,12.07
2023-02-06T23:21:43.372Z,11.98
2023-02-06T23:24:10.439Z,12.13
2023-02-06T23:26:37.863Z,12.35
2023-02-06T23:29:06.893Z,11.75
2023-02-06T23:31:35.834Z,11.77
2023-02-06T23:34:02.998Z,11.43
2023-02-06T23:36:29.615Z,12.82
2023-02-06T23:38:56.077Z,12.95
2023-02-06T23:41:25.939Z,12.43
2023-02-06T23:43:54.847Z,11.45
2023-02-06T23:46:22.192Z,11.48
2023-02-06T23:48:49.660Z,12.32
2023-02-06T23:51:17.249Z,12.93
2023-02-06T23:53:43.773Z,12.77
2023-02-06T23:56:12.452Z,12.15
2023-02-06T23:58:40.423Z,12.93
